Time;durP1;ratioP1;P1;durP2;ratioP2;P2;SDS_P1;SDS_P2;PMS_P1;PMS_P2;Temp;Humidity;BMP_temperature;BMP_pressure;BME280_temperature;BME280_humidity;BME280_pressure;Samples;Min_cycle;Max_cycle;Signal;HPM_P1;HPM_P2
2024/03/06 00:01:25;;;;;;;5.60;4.53;;;9.10;99.90;;;;;;5103926;27;20199;-69
2024/03/06 00:03:53;;;;;;;7.77;4.97;;;9.10;99.90;;;;;;5095969;27;20238;-69
2024/03/06 00:06:20;;;;;;;6.20;4.67;;;9.10;99.90;;;;;;5117794;27;20549;-69
2024/03/06 00:08:47;;;;;;;5.27;4.13;;;9.10;99.90;;;;;;5129492;27;20201;-69
2024/03/06 00:11:15;;;;;;;6.93;4.07;;;9.10;99.90;;;;;;5101581;27;20205;-69
2024/03/06 00:13:42;;;;;;;4.30;3.60;;;9.10;99.90;;;;;;5118968;27;20220;-69
2024/03/06 00:16:09;;;;;;;4.57;3.63;;;9.10;99.90;;;;;;5115567;27;20210;-69
2024/03/06 00:18:36;;;;;;;3.80;3.17;;;9.20;99.90;;;;;;5094158;28;20604;-70
2024/03/06 00:21:05;;;;;;;3.33;2.77;;;9.20;99.90;;;;;;5097935;28;20298;-69
2024/03/06 00:23:32;;;;;;;3.13;2.83;;;9.20;99.90;;;;;;5098788;28;20313;-69
2024/03/06 00:25:59;;;;;;;3.43;3.13;;;9.20;99.90;;;;;;5083087;28;20284;-69
2024/03/06 00:28:27;;;;;;;5.30;4.30;;;9.20;99.90;;;;;;5121496;27;20193;-69
2024/03/06 00:30:54;;;;;;;4.93;3.97;;;9.20;99.90;;;;;;5111456;27;20223;-69
2024/03/06 00:33:21;;;;;;;3.63;3.10;;;9.20;99.90;;;;;;5103122;28;20198;-70
2024/03/06 00:35:48;;;;;;;3.70;3.23;;;9.20;99.90;;;;;;5096068;28;20219;-70
2024/03/06 00:38:17;;;;;;;5.93;3.27;;;9.20;99.90;;;;;;5113756;28;20527;-69
2024/03/06 00:40:44;;;;;;;3.83;2.83;;;9.20;99.90;;;;;;5101712;28;21159;-69
2024/03/06 00:43:11;;;;;;;3.87;3.20;;;9.30;99.90;;;;;;5112267;28;20195;-70
2024/03/06 00:45:38;;;;;;;3.43;3.13;;;9.30;99.90;;;;;;5111251;28;20209;-68
2024/03/06 00:48:06;;;;;;;3.50;3.20;;;9.30;99.90;;;;;;5079394;28;20643;-68
2024/03/06 00:50:33;;;;;;;4.30;3.80;;;9.30;99.90;;;;;;5085392;28;20198;-68
2024/03/06 00:53:00;;;;;;;5.20;4.30;;;9.30;99.90;;;;;;5097610;28;20202;-69
2024/03/06 00:55:29;;;;;;;4.60;4.10;;;9.30;99.90;;;;;;5105654;28;20543;-69
2024/03/06 00:57:56;;;;;;;7.77;4.80;;;9.30;99.90;;;;;;5083580;28;20203;-68
2024/03/06 01:00:24;;;;;;;6.20;4.43;;;9.30;99.90;;;;;;5109095;28;20667;-68
2024/03/06 01:02:51;;;;;;;6.37;4.70;;;9.30;99.90;;;;;;5122404;28;20255;-68
2024/03/06 01:05:18;;;;;;;6.53;4.90;;;9.30;99.90;;;;;;5106196;28;20542;-69
2024/03/06 01:07:45;;;;;;;5.10;3.93;;;9.30;99.90;;;;;;5122791;28;20255;-69
2024/03/06 01:10:12;;;;;;;7.07;4.67;;;9.30;99.90;;;;;;5116326;28;20557;-67
2024/03/06 01:12:44;;;;;;;6.43;4.03;;;9.30;99.90;;;;;;5135535;27;20619;-68
2024/03/06 01:15:11;;;;;;;3.77;3.47;;;9.30;99.90;;;;;;5088654;28;20257;-68
2024/03/06 01:17:38;;;;;;;4.60;3.10;;;9.30;99.90;;;;;;5114600;28;20224;-68
2024/03/06 01:20:07;;;;;;;4.97;3.13;;;9.30;99.90;;;;;;5099976;28;20219;-69
2024/03/06 01:22:35;;;;;;;5.00;3.07;;;9.30;99.90;;;;;;5112879;28;20202;-69
2024/03/06 01:25:02;;;;;;;3.60;2.73;;;9.30;99.90;;;;;;5112364;28;20196;-68
2024/03/06 01:27:30;;;;;;;2.80;2.60;;;9.40;99.90;;;;;;5113123;28;20242;-69
2024/03/06 01:29:58;;;;;;;3.20;2.90;;;9.40;99.90;;;;;;5110881;28;20201;-69
2024/03/06 01:32:25;;;;;;;3.20;1.97;;;9.40;99.90;;;;;;5112489;28;20227;-69
2024/03/06 01:34:53;;;;;;;3.63;2.83;;;9.40;99.90;;;;;;5111031;28;20290;-69
2024/03/06 01:37:20;;;;;;;2.73;2.30;;;9.40;99.90;;;;;;5113335;28;20195;-68
2024/03/06 01:39:47;;;;;;;3.50;3.20;;;9.40;99.90;;;;;;5116579;28;20203;-70
2024/03/06 01:42:14;;;;;;;2.60;2.40;;;9.40;99.90;;;;;;5096960;28;20573;-70
2024/03/06 01:44:41;;;;;;;3.30;3.00;;;9.40;99.90;;;;;;5120226;28;20198;-69
2024/03/06 01:47:10;;;;;;;5.10;2.53;;;9.40;99.90;;;;;;5111523;28;20202;-70
2024/03/06 01:49:37;;;;;;;3.97;2.80;;;9.40;99.90;;;;;;5109024;28;20201;-69
2024/03/06 01:52:04;;;;;;;5.00;2.67;;;9.40;99.90;;;;;;5096769;28;20593;-69
2024/03/06 01:54:32;;;;;;;2.80;2.50;;;9.40;99.90;;;;;;5119662;27;20194;-70
2024/03/06 01:57:02;;;;;;;3.20;2.90;;;9.40;99.90;;;;;;5093682;28;20223;-70
2024/03/06 01:59:29;;;;;;;3.40;3.00;;;9.30;99.90;;;;;;5137811;27;20241;-70
2024/03/06 02:01:57;;;;;;;4.47;3.10;;;9.30;99.90;;;;;;5095973;28;20674;-70
2024/03/06 02:04:28;;;;;;;4.60;3.20;;;9.30;99.90;;;;;;5113858;27;20207;-69
2024/03/06 02:06:55;;;;;;;3.50;3.10;;;9.30;99.90;;;;;;5095509;28;20203;-70
2024/03/06 02:09:24;;;;;;;4.20;3.10;;;9.30;99.90;;;;;;5099065;28;20268;-69
2024/03/06 02:11:51;;;;;;;4.17;3.43;;;9.20;99.90;;;;;;5114569;27;20198;-69
2024/03/06 02:14:17;;;;;;;4.47;3.20;;;9.20;99.90;;;;;;5131645;27;20206;-69
2024/03/06 02:16:44;;;;;;;3.43;2.80;;;9.20;99.90;;;;;;5116395;27;20309;-69
2024/03/06 02:19:11;;;;;;;4.77;3.47;;;9.20;99.90;;;;;;5103330;28;20231;-69
2024/03/06 02:21:40;;;;;;;3.60;3.30;;;9.20;99.90;;;;;;5113443;28;20199;-69
2024/03/06 02:24:08;;;;;;;6.70;3.60;;;9.20;99.90;;;;;;5114885;27;20248;-69
2024/03/06 02:26:35;;;;;;;5.20;3.70;;;9.10;99.90;;;;;;5112288;28;20714;-69
2024/03/06 02:29:02;;;;;;;5.53;3.70;;;9.10;99.90;;;;;;5102142;27;20298;-69
2024/03/06 02:31:29;;;;;;;4.23;3.40;;;9.10;99.90;;;;;;5094059;28;20202;-71
2024/03/06 02:33:58;;;;;;;5.00;3.50;;;9.10;99.90;;;;;;5099223;27;20205;-70
2024/03/06 02:36:25;;;;;;;3.77;3.43;;;9.10;99.90;;;;;;5101686;28;20222;-70
2024/03/06 02:38:54;;;;;;;4.00;3.60;;;9.10;99.90;;;;;;5110051;27;20224;-70
2024/03/06 02:41:21;;;;;;;4.77;3.53;;;9.10;99.90;;;;;;5106547;28;20266;-70
2024/03/06 02:43:48;;;;;;;3.70;3.33;;;9.10;99.90;;;;;;5124133;27;20199;-70
2024/03/06 02:46:15;;;;;;;3.93;3.47;;;9.10;99.90;;;;;;5114559;28;20297;-69
2024/03/06 02:48:42;;;;;;;4.93;3.60;;;9.10;99.90;;;;;;5113943;27;20204;-70
2024/03/06 02:51:09;;;;;;;5.80;3.30;;;9.10;99.90;;;;;;5100572;27;20208;-70
2024/03/06 02:53:37;;;;;;;3.23;2.93;;;9.10;99.90;;;;;;5118857;27;20762;-72
2024/03/06 02:56:06;;;;;;;5.27;2.77;;;9.10;99.90;;;;;;5118793;27;20257;-72
2024/03/06 02:58:34;;;;;;;2.97;2.60;;;9.20;99.90;;;;;;5114129;28;20287;-72
2024/03/06 03:01:02;;;;;;;3.10;2.80;;;9.20;99.90;;;;;;5113627;28;20631;-73
2024/03/06 03:03:29;;;;;;;3.20;2.90;;;9.20;99.90;;;;;;5103250;28;20345;-73
2024/03/06 03:05:56;;;;;;;2.80;2.57;;;9.20;99.90;;;;;;5118679;27;20194;-70
2024/03/06 03:08:23;;;;;;;3.07;2.70;;;9.20;99.90;;;;;;5119564;27;20292;-71
2024/03/06 03:10:51;;;;;;;3.40;2.67;;;9.30;99.90;;;;;;5116996;27;20219;-71
2024/03/06 03:13:19;;;;;;;7.17;2.87;;;9.30;99.90;;;;;;5115939;27;20247;-70
2024/03/06 03:15:47;;;;;;;4.47;3.10;;;9.30;99.90;;;;;;5115414;27;20229;-70
2024/03/06 03:18:14;;;;;;;2.63;2.43;;;9.30;99.90;;;;;;5097558;28;20201;-70
2024/03/06 03:20:42;;;;;;;2.87;2.40;;;9.30;99.90;;;;;;5099305;27;20221;-70
2024/03/06 03:23:11;;;;;;;2.50;2.30;;;9.30;99.90;;;;;;5105526;27;20202;-70
2024/03/06 03:25:38;;;;;;;2.90;2.60;;;9.30;99.90;;;;;;5096884;28;20237;-70
2024/03/06 03:28:06;;;;;;;2.97;2.50;;;9.30;99.90;;;;;;5107036;27;20599;-71
2024/03/06 03:30:35;;;;;;;2.87;2.53;;;9.30;99.90;;;;;;5110750;27;20251;-70
2024/03/06 03:33:02;;;;;;;3.80;2.93;;;9.30;99.90;;;;;;5113282;28;20223;-69
2024/03/06 03:35:31;;;;;;;4.30;3.37;;;9.30;99.90;;;;;;5113142;28;20274;-69
2024/03/06 03:37:58;;;;;;;4.67;4.07;;;9.20;99.90;;;;;;5110319;27;20187;-69
2024/03/06 03:40:25;;;;;;;3.97;3.10;;;9.20;99.90;;;;;;5118191;27;20291;-70
2024/03/06 03:42:52;;;;;;;5.10;3.60;;;9.20;99.90;;;;;;5104688;27;20200;-69
2024/03/06 03:45:20;;;;;;;4.30;3.70;;;9.20;99.90;;;;;;5103485;28;20526;-70
2024/03/06 03:47:48;;;;;;;4.90;4.23;;;9.10;99.90;;;;;;5125458;27;20204;-70
2024/03/06 03:50:17;;;;;;;4.57;3.80;;;9.10;99.90;;;;;;5114233;27;20226;-70
2024/03/06 03:52:44;;;;;;;5.07;3.67;;;9.10;99.90;;;;;;5122983;27;20207;-71
2024/03/06 03:55:11;;;;;;;7.03;4.17;;;9.00;99.90;;;;;;5115639;27;20193;-71
2024/03/06 03:57:38;;;;;;;4.27;3.63;;;9.00;99.90;;;;;;5099965;28;20626;-69
2024/03/06 04:00:10;;;;;;;4.43;3.90;;;9.00;99.90;;;;;;5125283;27;20592;-70
2024/03/06 04:02:39;;;;;;;6.77;4.10;;;9.00;99.90;;;;;;5117982;27;20198;-71
2024/03/06 04:05:09;;;;;;;5.60;4.13;;;9.00;99.90;;;;;;5125317;27;20281;-71
2024/03/06 04:07:37;;;;;;;5.13;3.93;;;8.90;99.90;;;;;;5113545;27;20192;-70
2024/03/06 04:10:04;;;;;;;4.07;3.50;;;8.90;99.90;;;;;;5099533;27;20586;-70
2024/03/06 04:12:31;;;;;;;4.00;3.60;;;8.90;99.90;;;;;;5115349;27;20198;-71
2024/03/06 04:14:59;;;;;;;4.90;3.30;;;8.90;99.90;;;;;;5127490;27;20255;-70
2024/03/06 04:17:26;;;;;;;5.10;3.90;;;8.90;99.90;;;;;;5099086;28;20228;-71
2024/03/06 04:19:55;;;;;;;3.90;3.40;;;8.90;99.90;;;;;;5105896;28;20205;-71
2024/03/06 04:22:23;;;;;;;6.10;3.40;;;8.90;99.90;;;;;;5106261;28;20194;-71
2024/03/06 04:24:51;;;;;;;9.37;4.77;;;8.90;99.90;;;;;;5114282;28;20253;-71
2024/03/06 04:27:18;;;;;;;10.17;4.30;;;8.90;99.90;;;;;;5110471;28;20692;-70
2024/03/06 04:29:45;;;;;;;6.57;4.27;;;8.80;99.90;;;;;;5112999;28;20234;-70
2024/03/06 04:32:14;;;;;;;4.97;3.87;;;8.80;99.90;;;;;;5111786;28;20254;-70
2024/03/06 04:34:41;;;;;;;4.43;4.03;;;8.80;99.90;;;;;;5116195;27;20194;-70
2024/03/06 04:37:08;;;;;;;6.60;4.63;;;8.80;99.90;;;;;;5105760;28;20313;-70
2024/03/06 04:39:36;;;;;;;5.23;3.80;;;8.80;99.90;;;;;;5101691;28;20263;-70
2024/03/06 04:42:05;;;;;;;8.50;5.77;;;8.80;99.90;;;;;;5089440;28;20624;-70
2024/03/06 04:44:35;;;;;;;6.30;4.50;;;8.70;99.90;;;;;;5098541;28;20627;-70
2024/03/06 04:47:02;;;;;;;8.10;5.33;;;8.70;99.90;;;;;;5119077;28;20189;-70
2024/03/06 04:49:29;;;;;;;7.83;4.60;;;8.70;99.90;;;;;;5099864;28;20581;-69
2024/03/06 04:51:56;;;;;;;5.33;4.03;;;8.70;99.90;;;;;;5107565;28;20215;-70
2024/03/06 04:54:23;;;;;;;4.70;3.80;;;8.70;99.90;;;;;;5123254;28;20204;-72
2024/03/06 04:56:54;;;;;;;8.57;4.53;;;8.70;99.90;;;;;;5115991;28;20208;-71
2024/03/06 04:59:21;;;;;;;6.13;4.23;;;8.70;99.90;;;;;;5121754;28;20181;-69
2024/03/06 05:01:49;;;;;;;6.00;3.83;;;8.70;99.90;;;;;;5115545;28;20541;-69
2024/03/06 05:04:16;;;;;;;5.73;3.87;;;8.70;99.90;;;;;;5116350;28;20198;-70
2024/03/06 05:06:43;;;;;;;4.53;3.57;;;8.70;99.90;;;;;;5110905;28;20196;-70
2024/03/06 05:09:11;;;;;;;5.33;3.50;;;8.70;99.90;;;;;;5111796;28;20731;-69
2024/03/06 05:11:39;;;;;;;7.63;4.07;;;8.70;99.90;;;;;;5101574;28;20228;-69
2024/03/06 05:14:07;;;;;;;5.90;4.40;;;8.60;99.90;;;;;;5095339;28;20727;-69
2024/03/06 05:16:34;;;;;;;7.50;3.80;;;8.60;99.90;;;;;;5096029;28;20213;-69
2024/03/06 05:19:02;;;;;;;5.80;4.20;;;8.60;99.90;;;;;;5111739;28;20202;-69
2024/03/06 05:21:29;;;;;;;7.03;4.53;;;8.60;99.90;;;;;;5104229;28;20271;-69
2024/03/06 05:23:56;;;;;;;6.10;4.23;;;8.60;99.90;;;;;;5112735;28;20207;-70
2024/03/06 05:26:23;;;;;;;8.83;5.47;;;8.60;99.90;;;;;;5114499;28;20288;-69
2024/03/06 05:28:50;;;;;;;5.90;4.20;;;8.60;99.90;;;;;;5107068;27;20196;-69
2024/03/06 05:31:20;;;;;;;6.83;5.17;;;8.60;99.90;;;;;;5127103;27;20579;-70
2024/03/06 05:33:49;;;;;;;6.57;5.20;;;8.50;99.90;;;;;;5133459;27;20195;-70
2024/03/06 05:36:17;;;;;;;6.10;4.77;;;8.50;99.90;;;;;;5126630;27;20193;-70
2024/03/06 05:38:44;;;;;;;6.90;5.00;;;8.50;99.90;;;;;;5120002;27;20306;-68
2024/03/06 05:41:11;;;;;;;4.90;4.23;;;8.50;99.90;;;;;;5130756;27;20203;-67
2024/03/06 05:43:40;;;;;;;5.57;3.80;;;8.50;99.90;;;;;;5121357;27;20254;-67
2024/03/06 05:46:08;;;;;;;6.07;4.33;;;8.50;99.90;;;;;;5116441;27;20207;-67
2024/03/06 05:48:36;;;;;;;6.17;3.93;;;8.50;99.90;;;;;;5105850;28;20294;-70
2024/03/06 05:51:03;;;;;;;6.23;3.87;;;8.50;99.90;;;;;;5115048;27;20191;-71
2024/03/06 05:53:31;;;;;;;5.57;3.73;;;8.50;99.90;;;;;;5123381;27;20619;-70
2024/03/06 05:55:58;;;;;;;6.53;4.37;;;8.50;99.90;;;;;;5114115;27;20198;-70
2024/03/06 05:58:25;;;;;;;6.23;4.23;;;8.60;99.90;;;;;;5122822;27;20573;-71
2024/03/06 06:00:52;;;;;;;4.93;4.30;;;8.60;99.90;;;;;;5121278;27;20263;-71
2024/03/06 06:03:19;;;;;;;6.60;3.90;;;8.50;99.90;;;;;;5124543;27;20210;-70
2024/03/06 06:05:47;;;;;;;5.20;3.17;;;8.50;99.90;;;;;;5093116;27;20261;-71
2024/03/06 06:08:15;;;;;;;5.03;4.10;;;8.50;99.90;;;;;;5101195;28;20208;-70
2024/03/06 06:10:42;;;;;;;8.73;5.00;;;8.50;99.90;;;;;;5118788;27;20215;-70
2024/03/06 06:13:09;;;;;;;8.23;4.37;;;8.50;99.90;;;;;;5118019;27;20202;-71
2024/03/06 06:15:36;;;;;;;6.17;4.50;;;8.50;99.90;;;;;;5120906;27;20198;-70
2024/03/06 06:18:04;;;;;;;4.23;3.80;;;8.50;99.90;;;;;;5116309;27;20232;-70
2024/03/06 06:20:31;;;;;;;5.13;4.10;;;8.50;99.90;;;;;;5106650;27;20658;-70
2024/03/06 06:22:59;;;;;;;9.40;5.57;;;8.50;99.90;;;;;;5104084;28;20677;-70
2024/03/06 06:25:26;;;;;;;8.43;5.20;;;8.50;99.90;;;;;;5119850;27;20228;-69
2024/03/06 06:27:53;;;;;;;9.33;5.33;;;8.50;99.90;;;;;;5126002;27;20248;-69
2024/03/06 06:30:21;;;;;;;8.63;5.57;;;8.50;99.90;;;;;;5085952;28;20210;-69
2024/03/06 06:32:48;;;;;;;8.30;5.10;;;8.50;99.90;;;;;;5115777;27;20564;-67
2024/03/06 06:35:16;;;;;;;8.10;4.90;;;8.50;99.90;;;;;;5115950;27;20200;-67
2024/03/06 06:37:43;;;;;;;9.43;4.90;;;8.40;99.90;;;;;;5116273;27;20718;-68
2024/03/06 06:40:13;;;;;;;8.23;5.10;;;8.40;99.90;;;;;;5094544;27;20195;-68
2024/03/06 06:42:47;;;;;;;7.57;4.73;;;8.40;99.90;;;;;;5108724;27;20193;-68
2024/03/06 06:45:14;;;;;;;9.63;5.10;;;8.40;99.90;;;;;;5114461;27;20226;-68
2024/03/06 06:47:41;;;;;;;8.80;5.07;;;8.40;99.90;;;;;;5109019;27;20259;-68
2024/03/06 06:50:09;;;;;;;7.97;4.80;;;8.40;99.90;;;;;;5114380;27;20603;-68
2024/03/06 06:52:36;;;;;;;8.27;5.03;;;8.30;99.90;;;;;;5120878;27;20187;-68
2024/03/06 06:55:04;;;;;;;6.03;4.63;;;8.30;99.90;;;;;;5118828;27;20194;-68
2024/03/06 06:57:33;;;;;;;4.30;3.63;;;8.20;99.90;;;;;;5115545;27;20227;-68
2024/03/06 07:00:02;;;;;;;7.70;4.20;;;8.30;99.90;;;;;;5119941;27;20248;-67
2024/03/06 07:02:30;;;;;;;6.23;4.67;;;8.30;99.90;;;;;;5100533;28;20212;-69
2024/03/06 07:04:57;;;;;;;4.97;4.10;;;8.40;99.90;;;;;;5110805;27;20242;-69
2024/03/06 07:07:24;;;;;;;6.97;3.93;;;8.30;99.90;;;;;;5119362;27;20196;-69
2024/03/06 07:09:52;;;;;;;6.30;4.00;;;8.40;99.90;;;;;;5102992;27;20193;-69
2024/03/06 07:12:19;;;;;;;6.57;4.23;;;8.40;99.90;;;;;;5114822;27;20730;-69
2024/03/06 07:14:47;;;;;;;7.20;4.40;;;8.50;99.90;;;;;;5100852;27;20602;-68
2024/03/06 07:17:14;;;;;;;8.43;4.40;;;8.50;99.90;;;;;;5091989;28;20316;-69
2024/03/06 07:19:41;;;;;;;4.77;3.90;;;8.50;99.90;;;;;;5090663;28;20532;-69
2024/03/06 07:22:08;;;;;;;5.03;3.83;;;8.60;99.90;;;;;;5112272;27;20199;-67
2024/03/06 07:24:36;;;;;;;9.43;4.53;;;8.80;99.90;;;;;;5096592;27;20638;-67
2024/03/06 07:27:04;;;;;;;7.27;4.60;;;8.70;99.90;;;;;;5114325;27;20238;-68
2024/03/06 07:29:31;;;;;;;7.10;4.77;;;8.80;99.90;;;;;;5097102;28;20198;-68
2024/03/06 07:32:00;;;;;;;6.07;4.37;;;8.80;99.90;;;;;;5112107;27;20256;-68
2024/03/06 07:34:27;;;;;;;6.60;4.10;;;8.90;99.90;;;;;;5103374;28;20193;-69
2024/03/06 07:36:54;;;;;;;7.90;4.77;;;8.90;99.90;;;;;;5096076;28;20664;-68
2024/03/06 07:39:22;;;;;;;8.37;4.27;;;9.10;99.90;;;;;;5096633;28;20926;-69
2024/03/06 07:41:49;;;;;;;7.40;4.57;;;9.10;99.90;;;;;;5110864;27;20194;-69
2024/03/06 07:44:16;;;;;;;6.17;4.37;;;9.10;99.90;;;;;;5108169;27;20188;-68
2024/03/06 07:46:43;;;;;;;7.43;4.60;;;9.20;99.90;;;;;;5116776;27;20254;-68
2024/03/06 07:49:12;;;;;;;10.73;5.10;;;9.30;99.90;;;;;;5119288;27;20286;-68
2024/03/06 07:51:40;;;;;;;6.73;4.70;;;9.40;99.90;;;;;;5112501;28;20190;-68
2024/03/06 07:54:07;;;;;;;9.20;4.40;;;9.50;99.90;;;;;;5095624;28;20237;-68
2024/03/06 07:56:35;;;;;;;5.37;3.70;;;9.60;99.90;;;;;;5120784;27;20196;-69
2024/03/06 07:59:02;;;;;;;7.23;4.43;;;9.90;99.90;;;;;;5118316;27;20642;-68
2024/03/06 08:01:30;;;;;;;7.03;4.50;;;10.70;99.90;;;;;;5128036;27;20740;-68
2024/03/06 08:03:57;;;;;;;5.43;4.20;;;11.70;99.40;;;;;;5094366;28;20233;-68
2024/03/06 08:06:26;;;;;;;4.63;3.23;;;12.60;98.00;;;;;;5109394;27;20649;-68
2024/03/06 08:08:53;;;;;;;5.33;3.60;;;13.30;97.20;;;;;;5105586;27;20201;-68
2024/03/06 08:11:21;;;;;;;4.37;3.37;;;14.00;96.00;;;;;;5106915;27;20200;-68
2024/03/06 08:13:50;;;;;;;8.17;4.50;;;14.20;95.10;;;;;;5114519;27;20205;-68
2024/03/06 08:16:18;;;;;;;6.93;4.10;;;14.60;93.70;;;;;;5111458;28;20272;-68
2024/03/06 08:18:45;;;;;;;6.03;4.00;;;14.70;92.80;;;;;;5108510;27;20238;-69
2024/03/06 08:21:12;;;;;;;8.60;4.40;;;14.70;92.30;;;;;;5111512;28;20199;-69
2024/03/06 08:23:41;;;;;;;7.43;4.73;;;14.60;92.00;;;;;;5095676;28;20256;-67
2024/03/06 08:26:08;;;;;;;6.37;4.50;;;14.90;90.60;;;;;;5087559;28;20235;-67
2024/03/06 08:28:35;;;;;;;6.03;4.20;;;15.40;88.30;;;;;;5095570;27;20297;-68
2024/03/06 08:31:02;;;;;;;4.93;3.60;;;15.80;87.00;;;;;;5098494;27;20220;-68
2024/03/06 08:33:29;;;;;;;5.77;3.60;;;16.40;86.70;;;;;;5120038;27;20276;-68
2024/03/06 08:35:57;;;;;;;3.23;2.93;;;16.70;85.50;;;;;;5118840;27;20656;-69
2024/03/06 08:38:25;;;;;;;3.40;3.10;;;16.80;84.90;;;;;;5112829;28;20240;-69
2024/03/06 08:40:53;;;;;;;3.60;3.30;;;17.00;83.60;;;;;;5110651;28;20648;-68
2024/03/06 08:43:20;;;;;;;5.97;3.97;;;17.10;83.10;;;;;;5113572;28;20198;-68
2024/03/06 08:45:47;;;;;;;8.00;4.20;;;17.00;81.00;;;;;;5098406;28;20202;-69
2024/03/06 08:48:14;;;;;;;3.73;3.23;;;16.80;80.60;;;;;;5107537;28;20211;-68
2024/03/06 08:50:41;;;;;;;5.70;3.77;;;16.60;80.30;;;;;;5086900;28;20515;-68
2024/03/06 08:53:09;;;;;;;4.67;3.67;;;16.80;80.40;;;;;;5090798;28;20207;-68
2024/03/06 08:55:36;;;;;;;4.07;3.30;;;16.70;78.80;;;;;;5110687;28;20192;-69
2024/03/06 08:58:05;;;;;;;3.90;3.27;;;16.70;80.10;;;;;;5112368;28;20237;-69
2024/03/06 09:00:32;;;;;;;4.73;3.60;;;16.90;79.40;;;;;;5118126;27;20191;-68
2024/03/06 09:03:00;;;;;;;4.33;3.60;;;17.10;78.00;;;;;;5129499;27;20540;-68
2024/03/06 09:05:27;;;;;;;11.13;4.27;;;17.00;77.00;;;;;;5104009;28;20184;-68
2024/03/06 09:07:54;;;;;;;7.83;4.27;;;17.10;76.00;;;;;;5109955;27;20203;-68
2024/03/06 09:10:21;;;;;;;7.23;4.17;;;17.10;74.20;;;;;;5096447;28;20207;-68
2024/03/06 09:12:48;;;;;;;4.87;3.10;;;16.90;74.50;;;;;;5108419;27;20245;-68
2024/03/06 09:15:17;;;;;;;4.03;3.30;;;16.40;75.20;;;;;;5114154;27;20211;-68
2024/03/06 09:17:46;;;;;;;8.57;4.33;;;16.00;75.70;;;;;;5092949;28;20215;-68
2024/03/06 09:20:13;;;;;;;4.57;3.30;;;15.70;75.60;;;;;;5116937;27;20554;-68
2024/03/06 09:22:41;;;;;;;3.97;3.57;;;15.50;75.80;;;;;;5100455;28;20598;-67
2024/03/06 09:25:09;;;;;;;3.57;2.80;;;15.20;76.40;;;;;;5118114;27;20202;-67
2024/03/06 09:27:36;;;;;;;4.23;3.10;;;14.80;77.50;;;;;;5119008;27;20393;-68
2024/03/06 09:30:03;;;;;;;5.20;3.20;;;14.70;77.80;;;;;;5117380;27;20268;-68
2024/03/06 09:32:32;;;;;;;6.53;3.30;;;14.70;78.00;;;;;;5109903;27;20220;-68
2024/03/06 09:35:00;;;;;;;5.73;3.27;;;14.70;78.00;;;;;;5103954;28;20300;-67
2024/03/06 09:37:27;;;;;;;4.73;3.30;;;14.40;77.90;;;;;;5107748;27;20724;-69
2024/03/06 09:39:54;;;;;;;4.63;3.83;;;14.30;78.60;;;;;;5119567;27;20251;-68
2024/03/06 09:42:22;;;;;;;4.93;3.60;;;14.20;77.90;;;;;;5108829;27;20197;-68
2024/03/06 09:44:49;;;;;;;5.13;3.60;;;14.20;78.50;;;;;;5097685;28;20572;-68
2024/03/06 09:47:23;;;;;;;5.23;3.60;;;14.10;78.30;;;;;;5093281;27;20203;-68
2024/03/06 09:49:53;;;;;;;3.47;3.17;;;14.10;78.50;;;;;;5105687;27;20191;-68
2024/03/06 09:52:20;;;;;;;4.57;3.40;;;13.90;78.70;;;;;;5110858;27;20365;-69
2024/03/06 09:54:49;;;;;;;4.67;3.60;;;14.10;78.60;;;;;;5103796;27;20189;-68
2024/03/06 09:57:16;;;;;;;4.90;3.03;;;14.50;78.70;;;;;;5095730;27;20202;-69
2024/03/06 09:59:43;;;;;;;5.57;3.60;;;14.80;78.00;;;;;;5114766;27;20571;-68
2024/03/06 10:02:38;;;;;;;4.50;3.53;;;15.20;77.30;;;;;;5092321;27;20270;-68
2024/03/06 10:05:21;;;;;;;6.07;4.07;;;15.70;76.90;;;;;;5093954;28;20204;-68
2024/03/06 10:07:48;;;;;;;5.57;3.53;;;16.10;74.30;;;;;;5096593;28;20194;-68
2024/03/06 10:10:17;;;;;;;4.30;3.33;;;16.50;73.70;;;;;;5088339;28;20254;-68
2024/03/06 10:12:47;;;;;;;5.33;3.53;;;17.00;72.70;;;;;;5101110;27;20259;-68
2024/03/06 10:15:15;;;;;;;5.30;3.40;;;17.40;71.60;;;;;;5115865;27;20561;-68
2024/03/06 10:17:42;;;;;;;4.47;3.03;;;18.20;71.20;;;;;;5098962;28;20662;-68
2024/03/06 10:20:23;;;;;;;3.60;3.07;;;18.90;70.00;;;;;;5116005;27;20195;-68
2024/03/06 10:22:52;;;;;;;4.32;3.63;;;20.10;69.10;;;;;;5103504;28;20207;-68
2024/03/06 10:25:22;;;;;;;4.03;3.42;;;21.50;65.70;;;;;;5126149;27;20693;-69
2024/03/06 10:28:07;;;;;;;4.90;4.03;;;22.60;61.80;;;;;;5098359;28;20199;-69
2024/03/06 10:30:35;;;;;;;6.65;3.97;;;23.50;56.70;;;;;;5110976;27;20634;-69
2024/03/06 10:33:04;;;;;;;4.15;3.75;;;24.20;54.50;;;;;;5103037;27;20204;-68
2024/03/06 10:35:32;;;;;;;6.97;3.38;;;24.80;53.50;;;;;;5124297;27;20282;-68
2024/03/06 10:38:02;;;;;;;4.32;3.50;;;25.40;52.20;;;;;;5114213;27;20196;-69
2024/03/06 10:40:31;;;;;;;3.42;3.13;;;25.80;50.60;;;;;;5112157;28;20192;-68
2024/03/06 10:42:59;;;;;;;4.75;2.88;;;26.40;50.40;;;;;;5108373;27;20557;-69
2024/03/06 10:45:35;;;;;;;4.60;3.22;;;26.80;49.90;;;;;;5121802;27;20199;-68
2024/03/06 10:48:05;;;;;;;4.60;3.00;;;27.20;47.10;;;;;;5094906;27;20780;-68
2024/03/06 10:50:34;;;;;;;4.85;3.90;;;27.50;46.20;;;;;;5106152;28;20316;-69
2024/03/06 10:53:02;;;;;;;3.80;3.38;;;27.60;44.50;;;;;;5124153;27;20192;-69
2024/03/06 10:55:34;;;;;;;3.70;3.28;;;28.00;44.30;;;;;;5100374;28;20598;-68
2024/03/06 10:58:01;;;;;;;4.53;3.25;;;28.40;44.50;;;;;;5107191;27;20261;-68
2024/03/06 11:00:29;;;;;;;8.57;3.53;;;28.60;43.50;;;;;;5111927;28;20859;-69
2024/03/06 11:02:58;;;;;;;3.10;2.80;;;28.50;42.70;;;;;;5108230;27;20196;-70
2024/03/06 11:05:25;;;;;;;4.22;3.40;;;28.50;42.40;;;;;;5118676;27;20252;-67
2024/03/06 11:07:55;;;;;;;3.42;3.13;;;28.70;42.20;;;;;;5117147;27;20829;-69
2024/03/06 11:10:32;;;;;;;7.60;3.83;;;28.70;42.00;;;;;;5122034;27;20654;-68
2024/03/06 11:13:00;;;;;;;4.68;3.13;;;28.10;41.30;;;;;;5110662;28;20332;-69
2024/03/06 11:15:27;;;;;;;4.88;3.92;;;27.40;41.70;;;;;;5108461;28;20562;-69
2024/03/06 11:17:54;;;;;;;3.78;3.30;;;26.70;40.60;;;;;;5106835;27;20195;-69
2024/03/06 11:20:25;;;;;;;3.30;3.00;;;26.40;41.90;;;;;;5124659;27;20211;-68
2024/03/06 11:23:10;;;;;;;5.35;3.33;;;26.10;42.50;;;;;;5112285;28;20188;-69
2024/03/06 11:25:58;;;;;;;3.38;3.00;;;25.60;42.00;;;;;;5105080;27;20735;-68
2024/03/06 11:28:27;;;;;;;3.55;3.25;;;24.90;42.00;;;;;;5109203;27;20226;-68
2024/03/06 11:30:59;;;;;;;4.85;3.00;;;24.40;43.00;;;;;;5108714;28;20200;-69
2024/03/06 11:33:35;;;;;;;3.08;2.85;;;23.90;43.80;;;;;;5129204;27;20227;-68
2024/03/06 11:36:18;;;;;;;3.47;3.03;;;23.20;44.20;;;;;;5107984;27;20267;-68
2024/03/06 11:38:53;;;;;;;3.28;2.97;;;22.60;45.00;;;;;;5105112;27;20207;-68
2024/03/06 11:41:22;;;;;;;3.88;3.13;;;22.20;45.30;;;;;;5111030;27;20298;-68
2024/03/06 11:43:52;;;;;;;6.03;3.50;;;22.00;45.70;;;;;;5110706;28;20213;-68
2024/03/06 11:46:20;;;;;;;8.13;3.35;;;21.80;45.90;;;;;;5102946;28;20196;-68
2024/03/06 11:48:54;;;;;;;4.72;3.25;;;21.30;45.60;;;;;;5114764;27;20249;-68
2024/03/06 11:51:22;;;;;;;3.42;3.13;;;20.90;46.20;;;;;;5101909;28;20616;-68
2024/03/06 11:53:54;;;;;;;4.90;3.40;;;20.60;47.10;;;;;;5098286;28;20460;-68
2024/03/06 11:56:22;;;;;;;4.40;3.60;;;20.30;46.90;;;;;;5101977;28;20227;-69
2024/03/06 11:58:49;;;;;;;3.38;3.08;;;19.90;47.00;;;;;;5105286;28;20214;-70
2024/03/06 12:01:18;;;;;;;4.88;3.70;;;19.50;47.50;;;;;;5109463;28;20259;-69
2024/03/06 12:03:45;;;;;;;3.63;3.30;;;19.40;47.90;;;;;;5098478;27;20196;-70
2024/03/06 12:06:12;;;;;;;3.72;3.17;;;19.40;47.90;;;;;;5101623;28;20508;-70
2024/03/06 12:08:40;;;;;;;3.72;3.15;;;19.30;48.80;;;;;;5110127;28;20279;-69
2024/03/06 12:11:09;;;;;;;4.43;3.88;;;19.40;48.00;;;;;;5102779;28;20203;-69
2024/03/06 12:13:36;;;;;;;3.67;3.30;;;19.60;47.50;;;;;;5102926;28;20278;-68
2024/03/06 12:16:07;;;;;;;4.97;3.42;;;19.80;47.40;;;;;;5104988;28;20668;-69
2024/03/06 12:18:35;;;;;;;5.00;3.10;;;20.20;47.20;;;;;;5093565;28;20218;-69
2024/03/06 12:21:03;;;;;;;5.28;3.53;;;20.40;46.70;;;;;;5102042;28;20288;-69
2024/03/06 12:23:31;;;;;;;7.25;3.80;;;20.20;46.10;;;;;;5098456;28;20195;-69
2024/03/06 12:26:06;;;;;;;4.00;3.60;;;20.20;46.40;;;;;;5104907;28;20235;-70
2024/03/06 12:28:35;;;;;;;6.90;3.53;;;20.10;46.30;;;;;;5101022;28;20301;-70
2024/03/06 12:31:03;;;;;;;5.88;3.50;;;20.20;46.60;;;;;;5109685;28;20219;-70
2024/03/06 12:33:30;;;;;;;5.38;4.03;;;20.20;46.50;;;;;;5103250;27;20207;-70
2024/03/06 12:36:05;;;;;;;5.97;3.92;;;20.20;46.30;;;;;;5110725;28;20196;-70
2024/03/06 12:38:33;;;;;;;6.57;3.90;;;20.40;46.00;;;;;;5093406;28;20545;-70
2024/03/06 12:41:00;;;;;;;6.03;3.65;;;20.60;46.00;;;;;;5106477;28;20234;-69
2024/03/06 12:43:28;;;;;;;5.22;3.75;;;21.20;45.60;;;;;;5091232;28;20198;-70
2024/03/06 12:45:57;;;;;;;6.07;3.72;;;21.90;45.10;;;;;;5089210;28;20291;-71
2024/03/06 12:48:25;;;;;;;6.57;3.50;;;22.70;44.70;;;;;;5109128;28;20278;-70
2024/03/06 12:50:54;;;;;;;5.10;3.92;;;23.50;44.20;;;;;;5112518;28;20191;-71
2024/03/06 12:53:21;;;;;;;5.13;3.83;;;24.10;43.30;;;;;;5109068;28;20703;-70
2024/03/06 12:55:49;;;;;;;4.80;3.85;;;24.40;42.70;;;;;;5117584;28;20276;-70
2024/03/06 12:58:16;;;;;;;5.75;3.83;;;24.30;42.20;;;;;;5103747;28;20198;-70